createdAt,value
2022-10-23T00:04:41.535Z,52.02
2022-10-23T00:14:47.024Z,52.06
2022-10-23T00:24:53.390Z,52.19
2022-10-23T00:34:58.688Z,52.29
2022-10-23T00:45:03.836Z,51.86
2022-10-23T00:55:09.242Z,51.86
2022-10-23T01:05:14.453Z,51.87
2022-10-23T01:15:19.828Z,51.82
2022-10-23T01:25:25.340Z,52.01
2022-10-23T01:35:30.749Z,51.95
2022-10-23T01:45:36.074Z,52.12
2022-10-23T02:05:46.927Z,52.02
2022-10-23T02:15:51.982Z,51.96
2022-10-23T02:25:57.421Z,52.05
2022-10-23T02:36:02.857Z,52.14
2022-10-23T02:46:08.171Z,52.18
2022-10-23T02:56:13.578Z,52.04
2022-10-23T03:06:19.175Z,52.07
2022-10-23T03:16:24.998Z,51.75
2022-10-23T03:26:30.049Z,51.86
2022-10-23T03:36:35.376Z,51.77
2022-10-23T03:46:40.441Z,51.98
2022-10-23T03:56:45.734Z,52.04
2022-10-23T04:06:51.108Z,51.94
2022-10-23T04:16:56.527Z,51.70
2022-10-23T04:27:02.069Z,51.34
2022-10-23T04:37:07.139Z,51.07
2022-10-23T04:47:12.703Z,51.03
2022-10-23T04:57:18.020Z,50.98
2022-10-23T05:07:24.169Z,50.89
2022-10-23T05:17:29.849Z,50.68
2022-10-23T05:27:35.084Z,50.61
2022-10-23T05:37:40.484Z,50.41
2022-10-23T05:47:45.610Z,50.20
2022-10-23T05:57:51.513Z,50.25
2022-10-23T06:07:56.436Z,50.04
2022-10-23T06:18:01.771Z,50.03
2022-10-23T06:28:07.345Z,50.37
2022-10-23T06:38:12.527Z,50.46
2022-10-23T06:48:17.867Z,50.69
2022-10-23T06:58:23.130Z,50.72
2022-10-23T07:08:28.744Z,50.80
2022-10-23T07:28:39.976Z,50.98
2022-10-23T07:38:45.351Z,51.13
2022-10-23T07:48:50.944Z,51.25
2022-10-23T07:58:56.160Z,51.56
2022-10-23T08:09:05.328Z,51.82
2022-10-23T08:19:11.572Z,51.98
2022-10-23T08:29:16.354Z,52.33
2022-10-23T08:39:22.043Z,52.37
2022-10-23T08:49:27.007Z,52.67
2022-10-23T08:59:32.747Z,53.01
2022-10-23T09:09:38.058Z,53.20
2022-10-23T09:19:43.237Z,53.19
2022-10-23T09:29:48.300Z,53.25
2022-10-23T09:39:53.818Z,53.43
2022-10-23T09:49:59.113Z,53.46
2022-10-23T10:00:04.616Z,53.34
2022-10-23T10:10:09.592Z,53.52
2022-10-23T10:20:14.991Z,53.96
2022-10-23T10:30:20.360Z,53.69
2022-10-23T10:40:25.642Z,53.51
2022-10-23T10:50:31.195Z,54.56
2022-10-23T11:00:36.469Z,53.27
2022-10-23T11:10:42.247Z,53.51
2022-10-23T11:20:47.577Z,53.52
2022-10-23T11:30:53.151Z,53.96
2022-10-23T11:40:58.496Z,53.49
2022-10-23T11:51:05.102Z,53.59
2022-10-23T12:01:11.046Z,53.75
2022-10-23T12:11:16.825Z,53.75
2022-10-23T12:21:21.754Z,53.89
2022-10-23T12:31:27.243Z,54.13
2022-10-23T12:41:32.416Z,54.21
2022-10-23T12:51:37.723Z,54.07
2022-10-23T13:01:43.564Z,54.41
2022-10-23T13:11:49.179Z,54.88
2022-10-23T13:21:54.254Z,53.82
2022-10-23T13:31:59.444Z,54.21
2022-10-23T13:42:04.632Z,54.15
2022-10-23T13:52:10.344Z,54.78
2022-10-23T14:02:16.024Z,54.60
2022-10-23T14:12:21.490Z,55.28
2022-10-23T14:22:27.051Z,54.47
2022-10-23T14:32:32.000Z,54.64
2022-10-23T14:42:37.230Z,54.88
2022-10-23T14:52:42.664Z,55.24
2022-10-23T15:02:47.939Z,54.82
2022-10-23T15:12:53.518Z,54.73
2022-10-23T15:22:58.915Z,55.12
2022-10-23T15:33:04.228Z,55.55
2022-10-23T15:43:12.481Z,55.94
2022-10-23T15:53:18.775Z,55.54
2022-10-23T16:03:24.540Z,55.75
2022-10-23T16:13:29.624Z,55.66
2022-10-23T16:23:35.255Z,57.06
2022-10-23T16:33:40.234Z,55.68
2022-10-23T16:43:45.513Z,55.65
2022-10-23T16:53:50.702Z,56.50
2022-10-23T17:03:56.216Z,56.71
2022-10-23T17:14:01.854Z,55.71
2022-10-23T17:24:07.314Z,56.88
2022-10-23T17:34:12.991Z,56.94
2022-10-23T17:44:18.112Z,55.75
2022-10-23T17:54:23.283Z,56.42
2022-10-23T18:04:28.519Z,56.67
2022-10-23T18:14:37.318Z,56.10
2022-10-23T18:24:43.045Z,56.39
2022-10-23T18:34:47.807Z,56.41
2022-10-23T18:44:52.989Z,56.42
2022-10-23T18:54:57.892Z,56.81
2022-10-23T19:05:03.087Z,56.43
2022-10-23T19:15:08.344Z,56.81
2022-10-23T19:25:13.811Z,56.76
2022-10-23T19:35:18.359Z,56.84
2022-10-23T19:45:23.449Z,56.88
2022-10-23T19:55:29.150Z,56.85
2022-10-23T20:05:34.385Z,57.00
2022-10-23T20:15:39.933Z,57.19
2022-10-23T20:25:45.346Z,57.30
2022-10-23T20:35:50.560Z,57.05
2022-10-23T20:45:55.652Z,57.27
2022-10-23T20:56:00.840Z,57.27
2022-10-23T21:06:06.246Z,57.50
2022-10-23T21:16:11.070Z,57.21
2022-10-23T21:26:16.609Z,57.51
2022-10-23T21:36:21.542Z,57.84
2022-10-23T21:46:26.928Z,57.83
2022-10-23T21:56:32.414Z,57.92
2022-10-23T22:06:37.976Z,57.97
2022-10-23T22:16:43.273Z,57.86
2022-10-23T22:26:48.479Z,58.05
2022-10-23T22:36:53.902Z,58.10
2022-10-23T22:46:59.216Z,58.32
2022-10-23T22:57:04.260Z,58.74
2022-10-23T23:07:09.381Z,59.28
2022-10-23T23:17:14.794Z,59.48
2022-10-23T23:27:20.740Z,59.62
2022-10-23T23:37:25.867Z,59.42
2022-10-23T23:47:31.170Z,59.39
2022-10-23T23:57:36.519Z,59.39
